Time;durP1;ratioP1;P1;durP2;ratioP2;P2;SDS_P1;SDS_P2;PMS_P1;PMS_P2;Temp;Humidity;BMP_temperature;BMP_pressure;BME280_temperature;BME280_humidity;BME280_pressure;Samples;Min_cycle;Max_cycle;Signal;HPM_P1;HPM_P2
2022/10/08 00:01:30;;;;;;;21.80;13.20;;;16.40;90.80;;;;;;5027943;28;20193;-70
2022/10/08 00:03:56;;;;;;;19.33;11.50;;;16.40;90.70;;;;;;5025694;28;20225;-71
2022/10/08 00:06:23;;;;;;;20.67;13.33;;;16.40;90.70;;;;;;5028825;28;20218;-70
2022/10/08 00:08:52;;;;;;;20.07;12.03;;;16.40;90.50;;;;;;5023307;28;20459;-71
2022/10/08 00:11:21;;;;;;;24.13;12.07;;;16.40;90.60;;;;;;5025768;28;20423;-72
2022/10/08 00:13:49;;;;;;;21.93;13.67;;;16.30;90.60;;;;;;5026173;28;20961;-69
2022/10/08 00:16:16;;;;;;;21.43;13.30;;;16.20;90.80;;;;;;5026308;28;20431;-72
2022/10/08 00:18:43;;;;;;;19.20;12.80;;;16.20;91.00;;;;;;5032450;28;20477;-70
2022/10/08 00:21:15;;;;;;;17.67;12.07;;;16.30;90.80;;;;;;5032271;28;20874;-71
2022/10/08 00:23:42;;;;;;;22.30;13.43;;;16.20;90.70;;;;;;5030298;28;20428;-72
2022/10/08 00:26:08;;;;;;;17.93;12.23;;;16.20;90.80;;;;;;5030437;28;20423;-73
2022/10/08 00:28:35;;;;;;;25.73;13.70;;;16.10;90.90;;;;;;5032365;28;20422;-72
2022/10/08 00:31:13;;;;;;;24.37;13.80;;;16.00;91.10;;;;;;5034059;28;20434;-74
2022/10/08 00:33:39;;;;;;;23.20;13.47;;;15.90;91.60;;;;;;5033030;28;20424;-71
2022/10/08 00:36:08;;;;;;;21.63;14.07;;;15.90;91.80;;;;;;5030169;28;20442;-71
2022/10/08 00:38:34;;;;;;;21.67;12.97;;;15.80;91.90;;;;;;5031242;28;20473;-70
2022/10/08 00:41:00;;;;;;;20.63;12.40;;;15.70;92.10;;;;;;5031427;28;20438;-74
2022/10/08 00:43:50;;;;;;;19.70;12.70;;;15.80;92.10;;;;;;5029108;28;20193;-70
2022/10/08 00:46:22;;;;;;;20.10;13.70;;;15.90;92.10;;;;;;5036539;28;20188;-70
2022/10/08 00:48:51;;;;;;;25.50;12.77;;;15.90;91.90;;;;;;5038272;28;20458;-70
2022/10/08 00:51:18;;;;;;;23.13;14.27;;;15.90;91.90;;;;;;5033183;28;20458;-71
2022/10/08 00:53:43;;;;;;;24.10;13.37;;;15.90;91.90;;;;;;5031194;28;20433;-71
2022/10/08 00:56:09;;;;;;;20.20;12.63;;;15.90;91.80;;;;;;5029871;28;20436;-71
2022/10/08 00:58:36;;;;;;;21.07;12.10;;;15.90;91.70;;;;;;5033119;28;20287;-71
2022/10/08 01:01:02;;;;;;;23.03;14.33;;;15.80;91.70;;;;;;5033922;28;20432;-70
2022/10/08 01:03:27;;;;;;;22.20;11.90;;;15.80;91.80;;;;;;5038571;28;20419;-72
2022/10/08 01:06:29;;;;;;;21.80;12.63;;;15.80;91.90;;;;;;5040076;28;20831;-71
2022/10/08 01:09:03;;;;;;;19.70;11.87;;;15.70;92.00;;;;;;5043183;28;20223;-72
2022/10/08 01:11:48;;;;;;;22.40;12.97;;;15.70;92.10;;;;;;5036472;28;20436;-73
2022/10/08 01:14:38;;;;;;;21.23;12.17;;;15.70;92.20;;;;;;5026024;28;20522;-70
2022/10/08 01:17:29;;;;;;;21.77;13.90;;;15.60;92.10;;;;;;5034039;28;20431;-69
2022/10/08 01:20:06;;;;;;;19.10;12.93;;;15.50;92.40;;;;;;5027038;28;20522;-72
2022/10/08 01:22:44;;;;;;;19.83;12.20;;;15.60;92.60;;;;;;5031374;28;20506;-69
2022/10/08 01:25:33;;;;;;;19.33;13.10;;;15.50;92.70;;;;;;5031166;28;20464;-70
2022/10/08 01:28:18;;;;;;;22.53;14.50;;;15.60;92.50;;;;;;5032988;28;20426;-69
2022/10/08 01:30:50;;;;;;;21.63;13.80;;;15.50;92.50;;;;;;5029147;28;20491;-70
2022/10/08 01:33:28;;;;;;;24.00;13.43;;;15.40;92.80;;;;;;5035149;28;20420;-70
2022/10/08 01:35:56;;;;;;;21.33;13.80;;;15.40;93.00;;;;;;5031232;28;20470;-71
2022/10/08 01:38:26;;;;;;;24.90;13.40;;;15.50;92.80;;;;;;5032822;28;20829;-72
2022/10/08 01:40:57;;;;;;;21.80;13.33;;;15.50;92.70;;;;;;5029420;28;20451;-70
2022/10/08 01:43:30;;;;;;;18.27;11.97;;;15.50;92.70;;;;;;5032068;28;20431;-71
2022/10/08 01:46:00;;;;;;;22.23;13.00;;;15.50;92.80;;;;;;5028174;28;20927;-70
2022/10/08 01:48:30;;;;;;;19.70;13.10;;;15.50;92.70;;;;;;5032189;28;20420;-71
2022/10/08 01:50:57;;;;;;;28.73;13.00;;;15.50;92.60;;;;;;5032950;28;20423;-71
2022/10/08 01:53:27;;;;;;;21.83;13.27;;;15.50;92.50;;;;;;5032009;28;20465;-71
2022/10/08 01:55:54;;;;;;;19.37;13.53;;;15.50;92.40;;;;;;5025656;28;20969;-70
2022/10/08 01:58:40;;;;;;;18.93;12.10;;;15.50;92.40;;;;;;5031847;28;20559;-69
2022/10/08 02:01:12;;;;;;;19.87;12.10;;;15.40;92.50;;;;;;5026175;28;20930;-70
2022/10/08 02:04:31;;;;;;;20.13;12.13;;;15.50;92.60;;;;;;5029437;28;20908;-71
2022/10/08 02:06:25;;;;;;;21.80;14.10;;;15.60;92.40;;;;;;5028220;28;20932;-71
2022/10/08 02:08:51;;;;;;;18.77;12.50;;;15.60;92.30;;;;;;5031252;28;20516;-68
2022/10/08 02:11:16;;;;;;;22.50;12.23;;;15.60;92.30;;;;;;5031654;28;20507;-70
2022/10/08 02:13:42;;;;;;;23.83;13.80;;;15.50;92.40;;;;;;5026227;28;20677;-70
2022/10/08 02:16:19;;;;;;;19.60;12.37;;;15.50;92.40;;;;;;5026785;28;20185;-69
2022/10/08 02:18:57;;;;;;;17.30;12.30;;;15.50;92.60;;;;;;5031534;28;20210;-70
2022/10/08 02:21:26;;;;;;;17.80;11.67;;;15.40;92.50;;;;;;5031830;28;20462;-70
2022/10/08 02:24:02;;;;;;;19.17;12.30;;;15.40;92.90;;;;;;5027162;28;20435;-69
2022/10/08 02:26:34;;;;;;;18.50;11.17;;;15.50;92.90;;;;;;5038271;28;20473;-70
2022/10/08 02:29:10;;;;;;;18.87;10.50;;;15.40;92.70;;;;;;5031653;28;20431;-69
2022/10/08 02:31:50;;;;;;;22.70;12.33;;;15.40;92.90;;;;;;5029870;28;20421;-70
2022/10/08 02:34:23;;;;;;;18.63;12.30;;;15.50;92.80;;;;;;5023639;28;20463;-72
2022/10/08 02:37:15;;;;;;;22.30;12.00;;;15.50;92.80;;;;;;5027400;28;21282;-69
2022/10/08 02:39:45;;;;;;;23.03;11.20;;;15.40;92.70;;;;;;5020708;28;20554;-70
2022/10/08 02:42:16;;;;;;;24.13;13.33;;;15.40;92.80;;;;;;5030822;28;20940;-70
2022/10/08 02:44:48;;;;;;;27.37;14.03;;;15.40;92.80;;;;;;5029254;28;20455;-70
2022/10/08 02:47:19;;;;;;;20.87;12.10;;;15.50;92.90;;;;;;5027148;28;21021;-70
2022/10/08 02:49:58;;;;;;;25.10;13.37;;;15.40;92.80;;;;;;5030991;28;20919;-70
2022/10/08 02:52:29;;;;;;;16.53;10.57;;;15.30;93.00;;;;;;5031059;28;20829;-70
2022/10/08 02:54:59;;;;;;;16.50;11.23;;;15.30;93.10;;;;;;5028073;28;20459;-71
2022/10/08 02:57:43;;;;;;;22.60;12.37;;;15.40;93.10;;;;;;5030839;28;20410;-69
2022/10/08 03:00:10;;;;;;;20.30;11.80;;;15.40;92.90;;;;;;5030929;28;20417;-69
2022/10/08 03:02:45;;;;;;;19.37;12.97;;;15.30;93.00;;;;;;5036045;28;20856;-70
2022/10/08 03:05:16;;;;;;;21.23;11.90;;;15.30;93.10;;;;;;5025557;28;20483;-69
2022/10/08 03:07:42;;;;;;;15.47;11.60;;;15.20;93.30;;;;;;5031058;28;20948;-70
2022/10/08 03:10:08;;;;;;;26.93;11.97;;;15.20;93.60;;;;;;5030790;28;20499;-71
2022/10/08 03:12:34;;;;;;;20.87;11.13;;;15.30;93.40;;;;;;5030768;28;20511;-69
2022/10/08 03:15:00;;;;;;;20.23;11.80;;;15.40;93.10;;;;;;5023927;28;20459;-70
2022/10/08 03:17:34;;;;;;;20.63;11.47;;;15.40;92.90;;;;;;5030628;28;20511;-71
2022/10/08 03:20:05;;;;;;;19.80;11.90;;;15.30;92.80;;;;;;5031290;28;20239;-72
2022/10/08 03:22:32;;;;;;;23.37;12.40;;;15.20;93.00;;;;;;5044349;28;20445;-72
2022/10/08 03:24:57;;;;;;;18.43;11.10;;;15.20;93.20;;;;;;5025093;28;20576;-71
2022/10/08 03:27:23;;;;;;;19.90;12.53;;;15.20;93.30;;;;;;5030726;28;20530;-70
2022/10/08 03:29:48;;;;;;;19.10;10.87;;;15.30;93.30;;;;;;5032145;28;20182;-69
2022/10/08 03:32:14;;;;;;;17.43;10.33;;;15.40;93.30;;;;;;5031258;28;20187;-70
2022/10/08 03:34:40;;;;;;;18.70;11.77;;;15.50;93.00;;;;;;5024976;28;20704;-71
2022/10/08 03:37:06;;;;;;;14.53;9.67;;;15.50;92.90;;;;;;5030933;28;20425;-69
2022/10/08 03:39:31;;;;;;;14.00;10.40;;;15.50;92.70;;;;;;5030988;28;20704;-70
2022/10/08 03:41:57;;;;;;;15.97;9.83;;;15.60;92.70;;;;;;5030923;28;20675;-70
2022/10/08 03:44:22;;;;;;;16.50;10.40;;;15.60;92.20;;;;;;5027610;28;20213;-68
2022/10/08 03:46:48;;;;;;;19.80;10.80;;;15.60;92.00;;;;;;5031314;28;20190;-70
2022/10/08 03:49:13;;;;;;;16.20;9.60;;;15.60;92.00;;;;;;5030774;28;20192;-68
2022/10/08 03:51:39;;;;;;;16.80;9.60;;;15.60;92.20;;;;;;5030250;28;20193;-70
2022/10/08 03:54:05;;;;;;;20.57;10.53;;;15.60;92.30;;;;;;5027859;28;20875;-70
2022/10/08 03:56:30;;;;;;;18.33;10.70;;;15.60;92.30;;;;;;5030717;28;20198;-70
2022/10/08 03:58:59;;;;;;;18.07;10.10;;;15.60;92.30;;;;;;5030833;28;20238;-70
2022/10/08 04:01:27;;;;;;;17.87;10.87;;;15.50;92.40;;;;;;5030062;28;20183;-70
2022/10/08 04:03:53;;;;;;;15.93;11.10;;;15.40;92.70;;;;;;5026032;28;20464;-69
2022/10/08 04:06:19;;;;;;;21.80;12.17;;;15.50;92.90;;;;;;5030122;28;20470;-71
2022/10/08 04:08:45;;;;;;;17.83;10.60;;;15.60;92.70;;;;;;5030857;28;20430;-72
2022/10/08 04:11:13;;;;;;;16.97;11.60;;;15.60;92.30;;;;;;5032484;28;20270;-69
2022/10/08 04:13:39;;;;;;;16.93;10.40;;;15.50;92.10;;;;;;5032675;28;20247;-71
2022/10/08 04:16:07;;;;;;;15.03;9.90;;;15.60;92.20;;;;;;5031655;28;20443;-70
2022/10/08 04:18:33;;;;;;;18.17;10.43;;;15.60;92.20;;;;;;5032125;28;20460;-69
2022/10/08 04:21:00;;;;;;;15.70;11.73;;;15.60;92.20;;;;;;5033843;28;20432;-71
2022/10/08 04:23:27;;;;;;;14.50;9.70;;;15.60;92.10;;;;;;5034660;28;20551;-70
2022/10/08 04:25:53;;;;;;;18.10;10.00;;;15.70;92.10;;;;;;5023055;28;20460;-69
2022/10/08 04:28:20;;;;;;;19.63;10.90;;;15.70;92.10;;;;;;5029947;28;20541;-70
2022/10/08 04:30:59;;;;;;;18.00;11.37;;;15.80;92.00;;;;;;5029867;28;20453;-69
2022/10/08 04:33:26;;;;;;;17.63;9.97;;;15.90;92.00;;;;;;5029714;28;20859;-71
2022/10/08 04:35:53;;;;;;;14.57;10.33;;;15.90;91.80;;;;;;5022622;28;20462;-72
2022/10/08 04:38:18;;;;;;;19.07;11.33;;;15.90;91.70;;;;;;5029665;28;20470;-71
2022/10/08 04:40:44;;;;;;;20.17;10.20;;;15.90;91.50;;;;;;5029783;28;20485;-72
2022/10/08 04:43:10;;;;;;;19.17;10.00;;;15.90;91.70;;;;;;5029513;28;20278;-72
2022/10/08 04:45:44;;;;;;;15.83;10.20;;;15.90;91.70;;;;;;5022889;28;20213;-70
2022/10/08 04:48:10;;;;;;;17.50;10.60;;;16.00;91.50;;;;;;5029719;28;20186;-71
2022/10/08 04:50:36;;;;;;;16.57;10.00;;;16.10;91.10;;;;;;5029865;28;20935;-72
2022/10/08 04:53:01;;;;;;;16.03;9.90;;;15.90;91.10;;;;;;5029705;28;20463;-69
2022/10/08 04:55:27;;;;;;;18.50;11.00;;;16.00;91.20;;;;;;5023933;28;20260;-71
2022/10/08 04:57:53;;;;;;;16.77;10.50;;;15.90;91.20;;;;;;5028567;28;20195;-73
2022/10/08 05:00:18;;;;;;;19.93;11.30;;;16.00;91.40;;;;;;5029936;28;21291;-71
2022/10/08 05:02:44;;;;;;;14.47;9.90;;;15.90;91.20;;;;;;5028954;28;20286;-71
2022/10/08 05:05:09;;;;;;;16.43;10.63;;;16.00;91.30;;;;;;5029333;28;20651;-71
2022/10/08 05:07:35;;;;;;;17.27;10.17;;;15.80;91.10;;;;;;5032976;28;20271;-70
2022/10/08 05:10:00;;;;;;;15.70;10.43;;;15.70;91.40;;;;;;5033085;28;20556;-71
2022/10/08 05:12:26;;;;;;;21.20;10.90;;;15.70;91.70;;;;;;5032919;28;20287;-71
2022/10/08 05:14:52;;;;;;;19.37;11.43;;;15.60;91.90;;;;;;5028251;28;20205;-71
2022/10/08 05:17:17;;;;;;;19.13;10.83;;;15.50;92.10;;;;;;5031633;28;20181;-71
2022/10/08 05:19:43;;;;;;;16.43;10.20;;;15.50;92.20;;;;;;5032702;28;20229;-70
2022/10/08 05:22:08;;;;;;;17.50;10.70;;;15.50;92.20;;;;;;5032797;28;20177;-71
2022/10/08 05:24:34;;;;;;;16.50;10.20;;;15.50;92.20;;;;;;5029652;28;20754;-72
2022/10/08 05:26:59;;;;;;;30.03;10.73;;;15.50;92.10;;;;;;5031698;28;20185;-71
2022/10/08 05:29:27;;;;;;;20.40;11.17;;;15.50;92.10;;;;;;5033597;28;20191;-72
2022/10/08 05:31:52;;;;;;;20.27;10.67;;;15.50;92.10;;;;;;5032972;28;20188;-71
2022/10/08 05:34:18;;;;;;;14.97;10.40;;;15.50;92.20;;;;;;5027006;28;20476;-72
2022/10/08 05:36:43;;;;;;;17.17;11.10;;;15.50;92.10;;;;;;5022713;28;20273;-72
2022/10/08 05:39:10;;;;;;;21.40;11.13;;;15.50;92.10;;;;;;5032751;28;20205;-71
2022/10/08 05:41:36;;;;;;;19.33;11.27;;;15.40;91.90;;;;;;5035102;28;20205;-71
2022/10/08 05:44:02;;;;;;;18.97;10.83;;;15.40;91.90;;;;;;5032737;28;20547;-71
2022/10/08 05:46:30;;;;;;;15.30;9.73;;;15.40;91.90;;;;;;5032171;28;20420;-71
2022/10/08 05:48:58;;;;;;;21.70;10.90;;;15.30;91.90;;;;;;5033221;28;20466;-70
2022/10/08 05:51:24;;;;;;;22.43;9.93;;;15.30;92.00;;;;;;5033232;28;20474;-73
2022/10/08 05:53:51;;;;;;;20.30;10.57;;;15.30;91.90;;;;;;5028770;28;20444;-73
2022/10/08 05:56:19;;;;;;;18.90;10.07;;;15.30;92.10;;;;;;5029379;28;20435;-70
2022/10/08 05:58:45;;;;;;;13.63;8.67;;;15.30;92.10;;;;;;5030518;28;20476;-69
2022/10/08 06:01:13;;;;;;;17.13;9.80;;;15.30;92.00;;;;;;5032788;28;20511;-70
2022/10/08 06:03:39;;;;;;;15.60;10.07;;;15.40;91.70;;;;;;5031872;28;20422;-70
2022/10/08 06:06:07;;;;;;;19.47;9.80;;;15.30;91.70;;;;;;5032476;28;20940;-73
2022/10/08 06:08:34;;;;;;;15.37;9.13;;;15.20;91.50;;;;;;5034322;28;20466;-70
2022/10/08 06:11:00;;;;;;;24.40;9.90;;;15.20;91.90;;;;;;5034501;28;20438;-71
2022/10/08 06:13:26;;;;;;;20.20;9.10;;;15.30;91.70;;;;;;5035275;28;20420;-72
2022/10/08 06:15:59;;;;;;;20.30;9.60;;;15.20;91.80;;;;;;5031870;28;20465;-72
2022/10/08 06:18:27;;;;;;;13.63;9.00;;;15.20;92.00;;;;;;5036175;28;20233;-73
2022/10/08 06:20:53;;;;;;;16.87;10.33;;;15.30;91.90;;;;;;5032117;28;20441;-73
2022/10/08 06:23:19;;;;;;;18.43;9.67;;;15.40;91.50;;;;;;5031461;28;20425;-72
2022/10/08 06:25:45;;;;;;;20.43;11.30;;;15.30;91.70;;;;;;5026958;28;20452;-71
2022/10/08 06:28:11;;;;;;;17.63;9.83;;;15.30;91.80;;;;;;5031855;28;20432;-72
2022/10/08 06:30:40;;;;;;;15.37;9.00;;;15.30;91.70;;;;;;5031941;28;20189;-73
2022/10/08 06:33:06;;;;;;;11.40;8.77;;;15.40;91.50;;;;;;5032742;28;20190;-73
2022/10/08 06:35:31;;;;;;;17.83;9.97;;;15.30;91.40;;;;;;5027488;28;20558;-72
2022/10/08 06:37:57;;;;;;;17.80;10.20;;;15.30;91.50;;;;;;5031447;28;20505;-73
2022/10/08 06:40:23;;;;;;;18.40;11.23;;;15.30;91.50;;;;;;5031475;28;20178;-72
2022/10/08 06:42:48;;;;;;;17.07;10.50;;;15.20;91.40;;;;;;5031125;28;20193;-72
2022/10/08 06:45:14;;;;;;;18.83;10.70;;;15.30;91.40;;;;;;5028545;28;20219;-71
2022/10/08 06:47:39;;;;;;;15.57;9.07;;;15.20;91.40;;;;;;5031150;28;20186;-72
2022/10/08 06:50:05;;;;;;;21.03;10.90;;;15.20;91.40;;;;;;5033174;28;20716;-72
2022/10/08 06:52:31;;;;;;;31.63;18.23;;;15.20;91.30;;;;;;5038397;28;20645;-71
2022/10/08 06:54:56;;;;;;;18.07;10.20;;;15.30;91.60;;;;;;5031996;28;20468;-70
2022/10/08 06:57:22;;;;;;;15.80;8.70;;;15.30;91.50;;;;;;5034242;28;20185;-72
2022/10/08 06:59:48;;;;;;;12.40;7.50;;;15.20;91.10;;;;;;5033517;28;20219;-71
2022/10/08 07:02:13;;;;;;;13.30;8.67;;;15.30;91.00;;;;;;5033138;28;20263;-71
2022/10/08 07:04:39;;;;;;;20.70;10.73;;;15.40;90.80;;;;;;5027207;28;20460;-71
2022/10/08 07:07:04;;;;;;;16.43;9.57;;;15.40;90.10;;;;;;5032556;28;20195;-72
2022/10/08 07:09:30;;;;;;;19.63;8.67;;;15.40;90.30;;;;;;5034085;28;20188;-72
2022/10/08 07:11:56;;;;;;;12.90;8.00;;;15.40;90.20;;;;;;5032131;28;20185;-71
2022/10/08 07:14:21;;;;;;;20.93;8.50;;;15.50;90.10;;;;;;5024771;28;20585;-71
2022/10/08 07:16:47;;;;;;;20.47;8.40;;;15.50;89.90;;;;;;5030879;28;20604;-73
2022/10/08 07:19:14;;;;;;;14.03;7.47;;;15.60;89.60;;;;;;5030720;28;20608;-72
2022/10/08 07:21:39;;;;;;;19.73;8.37;;;15.60;89.00;;;;;;5030606;28;20247;-71
2022/10/08 07:24:05;;;;;;;11.60;7.03;;;15.60;88.70;;;;;;5025833;28;20470;-74
2022/10/08 07:26:33;;;;;;;15.93;7.77;;;15.60;88.10;;;;;;5027417;28;20183;-71
2022/10/08 07:29:04;;;;;;;14.60;7.60;;;15.60;87.30;;;;;;5029369;28;20187;-71
2022/10/08 07:31:32;;;;;;;12.33;7.60;;;15.70;87.40;;;;;;5030599;28;20432;-72
2022/10/08 07:33:59;;;;;;;13.73;6.63;;;15.60;86.30;;;;;;5024537;28;20459;-73
2022/10/08 07:36:26;;;;;;;13.57;6.00;;;15.30;86.60;;;;;;5029250;28;20424;-72
2022/10/08 07:38:57;;;;;;;15.00;6.80;;;15.40;86.50;;;;;;5030498;28;20473;-72
2022/10/08 07:41:23;;;;;;;11.43;6.00;;;15.50;86.20;;;;;;5030370;28;20438;-72
2022/10/08 07:43:53;;;;;;;14.63;6.37;;;15.60;85.30;;;;;;5026450;28;20516;-72
2022/10/08 07:46:20;;;;;;;12.50;6.63;;;15.60;84.70;;;;;;5027961;28;20976;-72
2022/10/08 07:48:45;;;;;;;11.13;6.60;;;15.60;85.20;;;;;;5030721;28;20789;-72
2022/10/08 07:51:14;;;;;;;12.67;6.70;;;15.60;85.60;;;;;;5030457;28;20432;-72
2022/10/08 07:53:41;;;;;;;18.37;6.03;;;15.50;85.60;;;;;;5029206;28;20655;-71
2022/10/08 07:56:08;;;;;;;11.50;6.20;;;15.50;84.40;;;;;;5028383;28;20444;-71
2022/10/08 07:58:33;;;;;;;9.53;5.53;;;15.60;83.80;;;;;;5030803;28;20992;-72
2022/10/08 08:01:02;;;;;;;10.40;4.93;;;15.90;83.40;;;;;;5030455;28;20461;-71
2022/10/08 08:03:28;;;;;;;8.73;5.87;;;16.10;82.20;;;;;;5030023;28;20242;-71
2022/10/08 08:05:59;;;;;;;11.30;6.20;;;16.30;80.80;;;;;;5027834;28;20457;-71
2022/10/08 08:08:25;;;;;;;8.53;5.73;;;16.20;80.50;;;;;;5030510;28;20446;-72
2022/10/08 08:11:01;;;;;;;16.70;6.90;;;16.30;80.50;;;;;;5030919;28;20951;-73
2022/10/08 08:13:29;;;;;;;12.93;6.43;;;16.40;80.50;;;;;;5031026;28;20193;-70
2022/10/08 08:15:59;;;;;;;13.67;7.00;;;16.50;80.60;;;;;;5025092;28;20486;-72
2022/10/08 08:18:29;;;;;;;14.67;6.73;;;16.30;81.20;;;;;;5030777;28;20998;-71
2022/10/08 08:21:06;;;;;;;12.20;6.07;;;16.30;81.10;;;;;;5030680;28;20929;-72
2022/10/08 08:23:37;;;;;;;11.77;6.27;;;16.10;82.20;;;;;;5030831;28;20420;-72
2022/10/08 08:26:24;;;;;;;14.07;5.90;;;15.90;82.10;;;;;;5028987;28;20439;-73
2022/10/08 08:28:58;;;;;;;11.57;4.60;;;15.90;81.40;;;;;;5031412;28;20427;-73
2022/10/08 08:31:30;;;;;;;12.67;5.10;;;15.90;79.90;;;;;;5029784;28;20781;-72
2022/10/08 08:33:58;;;;;;;7.93;4.20;;;15.70;78.60;;;;;;5027663;28;20470;-73
2022/10/08 08:36:27;;;;;;;15.40;5.20;;;15.80;79.00;;;;;;5027653;28;20455;-73
2022/10/08 08:38:52;;;;;;;12.03;4.37;;;16.00;77.60;;;;;;5030000;28;20464;-72
2022/10/08 08:41:50;;;;;;;9.83;4.50;;;15.90;76.70;;;;;;5033248;28;20494;-73
2022/10/08 08:44:15;;;;;;;10.80;4.10;;;15.80;76.50;;;;;;5009554;28;20307;-75
2022/10/08 08:46:46;;;;;;;10.10;4.07;;;15.70;74.30;;;;;;5033583;28;20501;-72
2022/10/08 08:49:25;;;;;;;12.83;4.63;;;15.70;73.00;;;;;;5029809;28;20182;-73
2022/10/08 08:51:52;;;;;;;9.03;3.90;;;15.60;71.70;;;;;;5033610;28;20477;-72
2022/10/08 08:54:17;;;;;;;9.07;3.53;;;15.60;71.30;;;;;;5030724;28;20460;-72
2022/10/08 08:56:43;;;;;;;13.60;3.30;;;15.60;70.70;;;;;;5033754;28;20435;-73
2022/10/08 08:59:28;;;;;;;8.13;3.60;;;15.70;70.80;;;;;;5033675;28;20210;-72
2022/10/08 09:01:58;;;;;;;8.87;3.90;;;15.90;70.20;;;;;;5046333;28;20216;-72
2022/10/08 09:04:45;;;;;;;10.23;3.80;;;16.00;70.70;;;;;;5030771;28;20478;-75
2022/10/08 09:07:16;;;;;;;8.60;4.17;;;16.00;70.70;;;;;;5034260;28;20422;-71
2022/10/08 09:09:47;;;;;;;8.33;3.50;;;16.00;71.30;;;;;;5033719;28;20455;-72
2022/10/08 09:12:16;;;;;;;7.20;3.57;;;16.10;71.00;;;;;;5029751;28;20408;-71
2022/10/08 09:14:54;;;;;;;7.00;4.00;;;16.10;70.20;;;;;;5032915;28;20771;-71
2022/10/08 09:17:29;;;;;;;7.70;3.67;;;16.00;70.80;;;;;;5030998;28;21262;-71
2022/10/08 09:19:56;;;;;;;13.57;5.27;;;16.00;70.80;;;;;;5032268;28;20459;-70
2022/10/08 09:22:39;;;;;;;11.53;3.83;;;16.20;70.80;;;;;;5036397;28;20535;-71
2022/10/08 09:25:14;;;;;;;10.93;3.97;;;16.20;70.70;;;;;;5028305;28;21173;-70
2022/10/08 09:27:52;;;;;;;6.53;3.80;;;16.30;70.40;;;;;;5037857;28;20854;-71
2022/10/08 09:30:23;;;;;;;8.00;3.70;;;16.40;70.40;;;;;;5035641;28;20524;-71
2022/10/08 09:32:54;;;;;;;6.67;3.33;;;16.60;69.50;;;;;;5034113;28;20557;-69
2022/10/08 09:35:20;;;;;;;8.20;4.33;;;16.70;69.40;;;;;;5024927;28;20542;-71
2022/10/08 09:37:47;;;;;;;9.70;3.23;;;16.90;68.90;;;;;;5028746;28;20511;-72
2022/10/08 09:40:20;;;;;;;8.53;3.77;;;16.80;68.60;;;;;;5033511;28;20481;-70
2022/10/08 09:43:09;;;;;;;8.50;3.37;;;16.50;68.60;;;;;;5033775;28;20529;-70
2022/10/08 09:45:46;;;;;;;6.00;3.10;;;16.60;69.10;;;;;;5027924;28;20460;-72
2022/10/08 09:48:22;;;;;;;7.73;3.60;;;16.60;68.60;;;;;;5032746;28;20415;-71
2022/10/08 09:51:02;;;;;;;9.27;3.83;;;16.50;68.50;;;;;;5049178;28;20440;-70
2022/10/08 09:53:40;;;;;;;14.20;3.57;;;16.60;68.20;;;;;;5030768;28;20470;-72
2022/10/08 09:56:07;;;;;;;18.07;3.43;;;16.60;68.20;;;;;;5031560;28;20558;-71
2022/10/08 09:58:55;;;;;;;14.20;3.77;;;16.50;68.30;;;;;;5033544;28;20545;-71
2022/10/08 10:01:20;;;;;;;11.40;3.20;;;16.30;68.80;;;;;;5032168;28;20785;-72
2022/10/08 10:03:55;;;;;;;8.43;3.80;;;16.40;69.20;;;;;;5031041;28;20454;-71
2022/10/08 10:06:29;;;;;;;11.13;3.90;;;16.60;68.60;;;;;;5030307;28;20191;-71
2022/10/08 10:09:09;;;;;;;8.70;3.27;;;16.80;67.50;;;;;;5031208;28;20423;-71
2022/10/08 10:11:42;;;;;;;8.37;3.40;;;16.60;68.00;;;;;;5030597;28;20416;-73
2022/10/08 10:14:25;;;;;;;9.40;3.67;;;16.30;68.20;;;;;;5024932;28;20857;-71
2022/10/08 10:17:10;;;;;;;14.07;3.87;;;16.40;68.60;;;;;;5028421;28;20426;-73
2022/10/08 10:19:43;;;;;;;14.70;3.83;;;16.60;68.30;;;;;;5032434;28;20464;-72
2022/10/08 10:22:16;;;;;;;12.33;3.93;;;16.80;68.00;;;;;;5031670;28;20485;-72
2022/10/08 10:25:11;;;;;;;12.10;3.43;;;16.90;67.50;;;;;;5028488;28;20462;-72
2022/10/08 10:27:53;;;;;;;9.43;3.50;;;17.10;66.90;;;;;;5030132;28;20420;-73
2022/10/08 10:30:22;;;;;;;12.67;3.20;;;17.40;65.40;;;;;;5030319;28;20435;-72
2022/10/08 10:32:50;;;;;;;14.50;3.77;;;17.30;65.10;;;;;;5031299;28;20415;-72
2022/10/08 10:35:25;;;;;;;10.23;3.67;;;17.50;65.30;;;;;;5024922;28;21014;-72
2022/10/08 10:38:01;;;;;;;8.20;3.40;;;17.10;65.70;;;;;;5030815;28;20459;-69
2022/10/08 10:40:41;;;;;;;7.90;3.50;;;17.40;66.00;;;;;;5031659;28;20427;-72
2022/10/08 10:43:25;;;;;;;14.10;3.87;;;17.60;65.70;;;;;;5025247;28;20452;-71
2022/10/08 10:45:59;;;;;;;16.03;4.43;;;17.60;65.70;;;;;;5022330;28;20519;-72
2022/10/08 10:48:24;;;;;;;10.23;3.30;;;17.50;66.90;;;;;;5030282;28;20422;-71
2022/10/08 10:51:18;;;;;;;9.00;3.33;;;17.90;65.40;;;;;;5031001;28;20426;-71
2022/10/08 10:54:17;;;;;;;7.03;3.23;;;18.00;63.40;;;;;;5028848;28;20567;-72
2022/10/08 10:56:51;;;;;;;8.30;3.27;;;17.30;64.10;;;;;;5046259;28;20428;-70
2022/10/08 10:59:36;;;;;;;10.87;3.60;;;17.00;65.70;;;;;;5026894;28;20603;-72
2022/10/08 11:02:13;;;;;;;7.03;3.30;;;17.40;64.70;;;;;;5024452;28;20446;-71
2022/10/08 11:04:42;;;;;;;8.63;3.43;;;17.50;62.00;;;;;;5027119;28;20483;-71
2022/10/08 11:07:44;;;;;;;10.03;3.40;;;17.40;62.20;;;;;;5030738;28;20422;-72
2022/10/08 11:10:28;;;;;;;6.07;2.80;;;17.10;62.90;;;;;;5025818;28;20607;-72
2022/10/08 11:13:17;;;;;;;11.87;3.80;;;17.20;63.10;;;;;;5026659;28;20453;-71
2022/10/08 11:15:54;;;;;;;8.73;3.30;;;17.40;62.00;;;;;;5025165;28;20466;-73
2022/10/08 11:18:27;;;;;;;7.33;3.00;;;17.30;61.70;;;;;;5029279;28;20474;-71
2022/10/08 11:21:15;;;;;;;9.10;3.00;;;17.20;62.20;;;;;;5028988;28;20911;-71
2022/10/08 11:23:53;;;;;;;6.50;3.20;;;17.20;63.40;;;;;;5028202;28;20431;-71
2022/10/08 11:26:39;;;;;;;10.93;3.33;;;17.40;63.70;;;;;;5028369;28;20420;-71
2022/10/08 11:29:14;;;;;;;11.93;3.40;;;17.40;63.10;;;;;;5024722;28;20512;-71
2022/10/08 11:31:47;;;;;;;11.50;3.73;;;17.60;61.50;;;;;;5029267;28;20759;-71
2022/10/08 11:34:36;;;;;;;6.53;2.60;;;17.80;60.30;;;;;;5026386;28;20462;-72
2022/10/08 11:37:26;;;;;;;6.37;2.97;;;18.00;57.60;;;;;;5029111;28;20416;-73
2022/10/08 11:39:55;;;;;;;10.73;2.80;;;18.00;58.40;;;;;;5044443;28;20487;-70
2022/10/08 11:42:33;;;;;;;4.93;2.80;;;17.70;59.30;;;;;;5029973;28;20441;-70
2022/10/08 11:45:24;;;;;;;15.00;3.57;;;17.70;59.10;;;;;;5024011;28;20510;-71
2022/10/08 11:47:53;;;;;;;8.63;2.50;;;17.40;60.00;;;;;;5029795;28;20459;-72
2022/10/08 11:50:36;;;;;;;8.77;3.47;;;17.50;58.80;;;;;;5031644;28;21595;-72
2022/10/08 11:53:14;;;;;;;6.87;3.63;;;17.40;60.10;;;;;;5030754;28;20422;-70
2022/10/08 11:55:55;;;;;;;10.13;3.03;;;17.60;59.60;;;;;;5026257;28;20574;-71
2022/10/08 11:58:29;;;;;;;8.60;3.00;;;18.20;59.30;;;;;;5034620;28;20465;-72
2022/10/08 12:01:07;;;;;;;7.93;3.10;;;18.70;56.10;;;;;;5033029;28;20506;-71
2022/10/08 12:03:39;;;;;;;5.53;2.30;;;19.00;55.60;;;;;;5039707;28;20440;-72
2022/10/08 12:06:23;;;;;;;6.30;2.47;;;19.00;56.00;;;;;;5038266;28;21092;-71
2022/10/08 12:08:59;;;;;;;6.30;2.87;;;18.20;57.00;;;;;;5037380;28;20508;-72
2022/10/08 12:11:30;;;;;;;11.43;3.23;;;18.10;58.80;;;;;;5043073;28;20425;-70
2022/10/08 12:14:12;;;;;;;5.97;2.87;;;18.00;60.00;;;;;;5043013;28;20448;-70
2022/10/08 12:16:46;;;;;;;7.47;3.00;;;17.90;59.90;;;;;;5048637;28;20433;-71
2022/10/08 12:19:34;;;;;;;8.40;3.20;;;18.10;60.00;;;;;;5042042;28;20460;-72
2022/10/08 12:22:02;;;;;;;7.33;2.70;;;18.40;58.40;;;;;;5044429;28;20429;-72
2022/10/08 12:24:36;;;;;;;6.50;3.10;;;18.70;56.00;;;;;;5039126;28;20455;-71
2022/10/08 12:27:21;;;;;;;8.90;3.33;;;19.10;55.60;;;;;;5037205;28;20430;-70
2022/10/08 12:30:07;;;;;;;9.83;2.90;;;19.10;55.40;;;;;;5041632;28;20426;-70
2022/10/08 12:32:38;;;;;;;11.30;2.77;;;18.60;56.60;;;;;;5038231;28;20467;-70
2022/10/08 12:35:05;;;;;;;9.63;3.10;;;18.10;58.80;;;;;;5032992;28;20472;-71
2022/10/08 12:38:02;;;;;;;10.43;3.00;;;18.00;60.00;;;;;;5037731;28;20428;-71
2022/10/08 12:40:34;;;;;;;6.10;2.50;;;18.50;58.90;;;;;;5039210;28;20471;-71
2022/10/08 12:43:20;;;;;;;11.00;3.20;;;17.90;60.40;;;;;;5036265;28;20953;-71
2022/10/08 12:45:58;;;;;;;6.57;2.70;;;18.10;59.30;;;;;;5035543;28;20559;-70
2022/10/08 12:48:54;;;;;;;7.07;2.93;;;17.90;59.70;;;;;;5034114;28;20499;-70
2022/10/08 12:51:53;;;;;;;6.37;3.00;;;17.70;61.50;;;;;;5035558;28;20421;-70
2022/10/08 12:54:23;;;;;;;11.67;4.50;;;18.20;60.70;;;;;;5032299;28;20470;-70
2022/10/08 12:56:50;;;;;;;6.90;3.23;;;18.60;58.70;;;;;;5033685;28;20426;-71